Time;durP1;ratioP1;P1;durP2;ratioP2;P2;SDS_P1;SDS_P2;PMS_P1;PMS_P2;Temp;Humidity;BMP_temperature;BMP_pressure;BME280_temperature;BME280_humidity;BME280_pressure;Samples;Min_cycle;Max_cycle;Signal;HPM_P1;HPM_P2
2022/05/29 00:01:50;;;;;;;13.63;4.40;;;10.30;99.90;;;;;;5051006;28;20499;-76
2022/05/29 00:04:16;;;;;;;15.80;4.20;;;10.30;99.90;;;;;;5015348;28;20043;-76
2022/05/29 00:06:45;;;;;;;13.25;4.45;;;10.30;99.90;;;;;;5043944;28;20037;-76
2022/05/29 00:09:16;;;;;;;14.63;4.40;;;10.30;99.90;;;;;;5034627;28;20046;-76
2022/05/29 00:11:42;;;;;;;13.07;3.97;;;10.30;99.90;;;;;;5036138;28;20041;-76
2022/05/29 00:14:08;;;;;;;11.63;4.18;;;10.30;99.90;;;;;;5047789;28;20053;-76
2022/05/29 00:16:33;;;;;;;14.35;4.85;;;10.20;99.90;;;;;;5020577;28;20481;-76
2022/05/29 00:18:59;;;;;;;13.65;4.35;;;10.20;99.90;;;;;;5045755;28;20175;-76
2022/05/29 00:21:26;;;;;;;12.43;4.38;;;10.20;99.90;;;;;;5048025;28;20077;-76
2022/05/29 00:23:53;;;;;;;14.05;4.68;;;10.20;99.90;;;;;;5026510;28;20410;-76
2022/05/29 00:26:20;;;;;;;12.50;4.15;;;10.20;99.90;;;;;;5034269;28;20062;-76
2022/05/29 00:28:46;;;;;;;14.55;4.13;;;10.30;99.90;;;;;;5038496;28;20041;-76
2022/05/29 00:31:13;;;;;;;16.33;4.30;;;10.20;99.90;;;;;;5056925;28;20053;-76
2022/05/29 00:33:40;;;;;;;14.07;4.43;;;10.20;99.90;;;;;;5016491;28;20045;-76
2022/05/29 00:36:13;;;;;;;15.45;4.72;;;10.20;99.90;;;;;;5039912;28;20110;-76
2022/05/29 00:38:40;;;;;;;8.82;4.00;;;10.20;99.90;;;;;;5044132;28;20187;-76
2022/05/29 00:41:11;;;;;;;12.63;4.65;;;10.20;99.90;;;;;;5060691;28;20051;-76
2022/05/29 00:43:37;;;;;;;14.02;4.05;;;10.20;99.90;;;;;;5037520;28;20045;-76
2022/05/29 00:46:04;;;;;;;12.70;4.38;;;10.10;99.90;;;;;;5030427;28;20042;-76
2022/05/29 00:48:30;;;;;;;13.10;4.13;;;10.20;99.90;;;;;;5042967;28;20049;-76
2022/05/29 00:51:00;;;;;;;12.23;4.18;;;10.10;99.90;;;;;;5017117;28;20515;-76
2022/05/29 00:53:27;;;;;;;12.68;4.40;;;10.10;99.90;;;;;;5057941;28;20124;-76
2022/05/29 00:56:02;;;;;;;11.90;4.28;;;10.10;99.90;;;;;;5039509;28;20047;-76
2022/05/29 00:58:28;;;;;;;14.10;4.40;;;10.10;99.90;;;;;;5047633;28;20128;-76
2022/05/29 01:00:55;;;;;;;14.23;4.25;;;10.20;99.90;;;;;;5013488;28;20041;-76
2022/05/29 01:03:21;;;;;;;11.07;4.22;;;10.00;99.90;;;;;;5041897;28;20083;-76
2022/05/29 01:05:47;;;;;;;13.73;4.22;;;9.90;99.90;;;;;;5043744;28;20076;-76
2022/05/29 01:08:24;;;;;;;14.70;4.53;;;9.90;99.90;;;;;;5045188;28;20503;-76
2022/05/29 01:10:49;;;;;;;14.65;4.22;;;9.90;99.90;;;;;;5044285;28;20399;-76
2022/05/29 01:13:21;;;;;;;12.73;4.78;;;9.80;99.90;;;;;;5039202;28;20033;-76
2022/05/29 01:16:04;;;;;;;11.18;3.92;;;9.80;99.90;;;;;;5038031;28;20048;-76
2022/05/29 01:18:44;;;;;;;12.10;4.05;;;9.80;99.90;;;;;;5049173;28;20036;-76
2022/05/29 01:21:41;;;;;;;12.60;3.90;;;9.80;99.90;;;;;;5043198;28;20047;-76
2022/05/29 01:24:28;;;;;;;12.43;4.13;;;9.70;99.90;;;;;;5040138;28;20042;-76
2022/05/29 01:27:32;;;;;;;13.75;4.43;;;9.70;99.90;;;;;;5050153;28;20504;-76
2022/05/29 01:30:11;;;;;;;15.70;4.25;;;9.60;99.90;;;;;;4946612;28;20457;-76
2022/05/29 01:32:41;;;;;;;13.77;3.90;;;9.60;99.90;;;;;;4962613;28;20046;-76
2022/05/29 01:35:13;;;;;;;12.38;4.57;;;9.60;99.90;;;;;;5014084;28;20041;-76
2022/05/29 01:37:50;;;;;;;14.40;4.38;;;9.70;99.90;;;;;;5056531;28;20037;-76
2022/05/29 01:40:31;;;;;;;12.02;4.40;;;9.70;99.90;;;;;;5033719;28;20095;-76
2022/05/29 01:43:20;;;;;;;12.65;3.92;;;9.70;99.90;;;;;;5041085;28;20077;-76
2022/05/29 01:46:16;;;;;;;15.25;4.20;;;9.70;99.90;;;;;;5020369;28;20037;-76
2022/05/29 01:49:16;;;;;;;15.27;4.40;;;9.70;99.90;;;;;;5034067;28;20104;-76
2022/05/29 01:51:48;;;;;;;13.30;3.78;;;9.70;99.90;;;;;;5018030;28;20037;-76
2022/05/29 01:54:24;;;;;;;14.88;4.40;;;9.60;99.90;;;;;;5036464;28;20504;-76
2022/05/29 01:56:58;;;;;;;16.63;4.50;;;9.60;99.90;;;;;;5031797;28;20045;-76
2022/05/29 01:59:31;;;;;;;13.13;4.43;;;9.50;99.90;;;;;;5049120;28;20052;-76
2022/05/29 02:02:03;;;;;;;13.20;4.55;;;9.50;99.90;;;;;;5048585;28;20049;-76
2022/05/29 02:04:31;;;;;;;15.05;4.53;;;9.50;99.90;;;;;;5054373;28;20491;-76
2022/05/29 02:09:50;;;;;;;14.50;4.97;;;9.50;99.90;;;;;;5046417;28;20606;-76
2022/05/29 02:12:21;;;;;;;15.95;4.50;;;9.40;99.90;;;;;;5051505;28;20302;-76
2022/05/29 02:14:56;;;;;;;12.93;4.60;;;9.40;99.90;;;;;;5018080;28;20128;-76
2022/05/29 02:17:27;;;;;;;17.45;4.45;;;9.50;99.90;;;;;;5049022;28;20037;-76
2022/05/29 02:20:01;;;;;;;11.40;4.85;;;9.50;99.90;;;;;;5048423;28;20068;-76
2022/05/29 02:22:29;;;;;;;15.02;4.80;;;9.50;99.90;;;;;;5050414;28;20048;-76
2022/05/29 02:25:00;;;;;;;14.30;4.60;;;9.40;99.90;;;;;;5053712;28;20550;-76
2022/05/29 02:27:57;;;;;;;15.13;4.78;;;9.50;99.90;;;;;;5021444;28;20107;-76
2022/05/29 02:30:26;;;;;;;13.15;4.30;;;9.50;99.90;;;;;;5044908;28;20689;-76
2022/05/29 02:33:14;;;;;;;13.38;4.13;;;9.50;99.90;;;;;;5052197;28;20170;-76
2022/05/29 02:35:45;;;;;;;15.32;4.55;;;9.60;99.90;;;;;;5027772;28;20041;-76
2022/05/29 02:38:27;;;;;;;18.23;5.03;;;9.50;99.90;;;;;;5035078;28;20034;-76
2022/05/29 02:41:06;;;;;;;16.88;4.70;;;9.60;99.90;;;;;;5034042;28;20052;-76
2022/05/29 02:43:54;;;;;;;11.73;4.40;;;9.50;99.90;;;;;;5039484;28;20544;-76
2022/05/29 02:46:42;;;;;;;13.68;4.35;;;10.00;99.90;;;;;;5028380;28;20033;-76
2022/05/29 02:49:30;;;;;;;11.88;4.40;;;9.50;99.90;;;;;;5036625;28;20045;-76
2022/05/29 02:52:01;;;;;;;12.13;4.68;;;9.50;99.90;;;;;;5033427;28;20034;-76
2022/05/29 02:54:30;;;;;;;14.55;4.97;;;9.50;99.90;;;;;;5030722;28;20033;-76
2022/05/29 02:56:58;;;;;;;16.27;4.70;;;9.50;99.90;;;;;;5042987;28;20071;-76
2022/05/29 02:59:30;;;;;;;19.33;4.97;;;9.50;99.90;;;;;;5050153;28;20567;-76
2022/05/29 03:02:25;;;;;;;19.33;5.03;;;9.50;99.90;;;;;;5032417;28;20497;-76
2022/05/29 03:05:18;;;;;;;15.05;4.85;;;9.40;99.90;;;;;;5038211;28;20090;-76
2022/05/29 03:08:05;;;;;;;16.13;5.40;;;9.50;99.90;;;;;;5052448;28;20510;-76
2022/05/29 03:10:45;;;;;;;17.65;5.40;;;9.50;99.90;;;;;;5052717;28;20052;-76
2022/05/29 03:13:34;;;;;;;15.75;5.15;;;9.50;99.90;;;;;;5047544;28;20029;-76
2022/05/29 03:16:13;;;;;;;15.13;4.97;;;9.40;99.90;;;;;;5052745;28;20510;-76
2022/05/29 03:18:52;;;;;;;16.35;4.60;;;9.40;99.90;;;;;;5039476;28;20041;-76
2022/05/29 03:21:34;;;;;;;14.85;4.90;;;9.40;99.90;;;;;;5051612;28;20041;-76
2022/05/29 03:24:14;;;;;;;15.27;4.85;;;9.40;99.90;;;;;;5041290;28;20060;-76
2022/05/29 03:26:42;;;;;;;13.68;4.28;;;9.50;99.90;;;;;;5037828;28;20057;-76
2022/05/29 03:29:46;;;;;;;12.60;4.93;;;9.50;99.90;;;;;;5043428;28;20037;-76
2022/05/29 03:32:12;;;;;;;15.55;5.28;;;9.50;99.90;;;;;;5031327;28;20041;-76
2022/05/29 03:34:37;;;;;;;15.52;4.80;;;9.50;99.90;;;;;;5032699;28;20508;-76
2022/05/29 03:37:03;;;;;;;13.02;4.68;;;9.40;99.90;;;;;;5032181;28;20120;-76
2022/05/29 03:39:29;;;;;;;16.55;5.20;;;9.50;99.90;;;;;;5032823;28;20104;-76
2022/05/29 03:41:55;;;;;;;19.92;5.13;;;9.50;99.90;;;;;;5015508;28;20180;-76
2022/05/29 03:44:23;;;;;;;16.90;5.22;;;9.50;99.90;;;;;;5007889;28;20487;-76
2022/05/29 03:46:49;;;;;;;15.60;5.07;;;9.60;99.90;;;;;;5037727;28;20056;-76
2022/05/29 03:49:17;;;;;;;13.93;4.82;;;9.60;99.90;;;;;;5017105;28;20045;-76
2022/05/29 03:51:43;;;;;;;14.10;4.55;;;9.50;99.90;;;;;;5045063;28;20041;-76
2022/05/29 03:54:10;;;;;;;13.50;4.82;;;9.50;99.90;;;;;;5051619;28;20049;-76
2022/05/29 03:56:36;;;;;;;16.77;4.93;;;9.60;99.90;;;;;;5019351;28;20082;-76
2022/05/29 03:59:03;;;;;;;14.35;4.30;;;9.60;99.90;;;;;;5032793;28;20096;-76
2022/05/29 04:01:29;;;;;;;13.60;4.88;;;9.60;99.90;;;;;;5038924;28;20037;-76
2022/05/29 04:03:55;;;;;;;14.70;4.60;;;9.60;99.90;;;;;;5050599;28;20396;-76
2022/05/29 04:06:26;;;;;;;12.50;4.38;;;9.60;99.90;;;;;;5045011;28;20033;-76
2022/05/29 04:14:23;;;;;;;13.98;4.50;;;9.60;99.90;;;;;;5051705;28;20514;-76
2022/05/29 04:16:50;;;;;;;13.65;4.20;;;9.70;99.90;;;;;;5050499;28;20041;-76
2022/05/29 04:19:16;;;;;;;14.35;4.43;;;9.70;99.90;;;;;;5048345;28;20121;-76
2022/05/29 04:21:42;;;;;;;15.27;4.32;;;9.70;99.90;;;;;;5050402;28;20037;-76
2022/05/29 04:24:07;;;;;;;15.90;4.32;;;9.70;99.90;;;;;;5051680;28;20041;-76
2022/05/29 04:26:34;;;;;;;11.10;3.85;;;9.70;99.90;;;;;;5050623;28;20053;-76
2022/05/29 04:29:03;;;;;;;14.77;4.57;;;9.80;99.90;;;;;;5051402;28;20122;-76
2022/05/29 04:31:31;;;;;;;18.20;4.25;;;9.80;99.90;;;;;;5033747;28;20036;-76
2022/05/29 04:33:56;;;;;;;13.50;4.18;;;9.80;99.90;;;;;;5044233;28;20048;-76
2022/05/29 04:36:23;;;;;;;13.40;3.85;;;9.90;99.90;;;;;;5017218;28;20496;-76
2022/05/29 04:38:49;;;;;;;18.30;4.43;;;9.90;99.90;;;;;;5040721;28;20072;-76
2022/05/29 04:41:16;;;;;;;16.65;4.38;;;9.90;99.90;;;;;;5038115;28;20041;-76
2022/05/29 04:43:42;;;;;;;14.73;4.30;;;9.90;99.90;;;;;;5030000;28;20073;-76
2022/05/29 04:46:07;;;;;;;13.02;3.92;;;9.90;99.90;;;;;;5030965;28;20069;-76
2022/05/29 04:48:33;;;;;;;13.32;3.65;;;9.90;99.90;;;;;;5029841;28;20044;-76
2022/05/29 04:51:01;;;;;;;12.77;4.03;;;9.90;99.90;;;;;;5030890;28;20411;-76
2022/05/29 04:53:28;;;;;;;15.50;4.47;;;9.90;99.90;;;;;;5036121;28;20120;-76
2022/05/29 04:55:55;;;;;;;13.68;3.83;;;9.90;99.90;;;;;;5039776;28;20041;-76
2022/05/29 04:58:23;;;;;;;13.85;3.80;;;9.90;99.90;;;;;;5035575;28;20063;-76
2022/05/29 05:00:48;;;;;;;13.45;4.05;;;9.90;99.90;;;;;;5054380;28;20468;-76
2022/05/29 05:03:14;;;;;;;12.23;4.00;;;9.90;99.90;;;;;;5033701;28;20049;-76
2022/05/29 05:05:40;;;;;;;13.52;3.60;;;9.90;99.90;;;;;;5030746;28;20541;-76
2022/05/29 05:08:06;;;;;;;13.55;3.88;;;10.00;99.90;;;;;;5033822;28;20456;-76
2022/05/29 05:10:31;;;;;;;11.45;3.65;;;10.10;99.90;;;;;;5030386;28;20411;-76
2022/05/29 05:12:57;;;;;;;17.73;4.00;;;10.10;99.90;;;;;;5028606;28;20037;-76
2022/05/29 05:15:23;;;;;;;12.18;3.55;;;10.10;99.90;;;;;;5040958;28;20048;-76
2022/05/29 05:17:48;;;;;;;12.63;3.50;;;10.10;99.90;;;;;;5036360;28;20040;-76
2022/05/29 05:20:15;;;;;;;14.15;3.65;;;10.20;99.90;;;;;;5030584;28;20041;-76
2022/05/29 05:22:41;;;;;;;14.05;3.90;;;10.30;99.90;;;;;;5042687;28;20091;-76
2022/05/29 05:25:11;;;;;;;15.25;3.72;;;10.40;99.90;;;;;;5030376;28;20064;-76
2022/05/29 05:27:37;;;;;;;13.90;3.58;;;10.40;99.90;;;;;;5051567;28;20041;-76
2022/05/29 05:30:03;;;;;;;11.02;3.30;;;10.40;99.90;;;;;;5034498;28;20037;-76
2022/05/29 05:32:29;;;;;;;12.88;3.60;;;10.40;99.90;;;;;;5001462;28;20036;-76
2022/05/29 05:34:55;;;;;;;10.65;3.25;;;10.40;99.90;;;;;;5017259;28;20044;-76
2022/05/29 05:37:20;;;;;;;11.77;3.20;;;10.40;99.90;;;;;;5047755;28;20476;-76
2022/05/29 05:39:46;;;;;;;12.15;3.45;;;10.50;99.90;;;;;;5037391;28;20385;-76
2022/05/29 05:42:12;;;;;;;14.13;3.22;;;10.40;99.90;;;;;;5035186;28;20132;-76
2022/05/29 05:44:40;;;;;;;10.32;3.42;;;10.40;99.90;;;;;;5042741;28;20041;-76
2022/05/29 05:47:07;;;;;;;13.20;3.30;;;10.40;99.90;;;;;;5034899;28;20554;-76
2022/05/29 05:49:33;;;;;;;13.35;3.10;;;10.30;99.90;;;;;;5032445;28;20536;-77
2022/05/29 05:51:59;;;;;;;13.00;3.33;;;10.30;99.90;;;;;;5039976;28;20128;-76
2022/05/29 05:54:30;;;;;;;12.65;3.25;;;10.30;99.90;;;;;;5040469;28;20506;-76
2022/05/29 05:56:55;;;;;;;12.05;2.95;;;10.40;99.90;;;;;;5052009;28;20068;-76
2022/05/29 05:59:21;;;;;;;12.82;3.42;;;10.30;99.90;;;;;;5036139;28;20041;-76
2022/05/29 06:01:47;;;;;;;11.43;3.28;;;10.40;99.90;;;;;;5025129;28;20033;-76
2022/05/29 06:04:13;;;;;;;14.93;3.22;;;10.40;99.90;;;;;;5022769;28;20037;-77
2022/05/29 06:06:38;;;;;;;14.38;3.13;;;10.60;99.90;;;;;;5033838;28;20520;-76
2022/05/29 06:09:04;;;;;;;11.80;3.08;;;10.60;99.90;;;;;;5045687;28;20063;-76
2022/05/29 06:11:30;;;;;;;11.93;3.10;;;10.70;99.90;;;;;;5033727;28;20033;-76
2022/05/29 06:13:56;;;;;;;14.85;3.13;;;10.80;99.90;;;;;;5034486;28;20096;-76
2022/05/29 06:16:22;;;;;;;12.45;2.97;;;10.90;99.90;;;;;;5030003;28;20102;-76
2022/05/29 06:18:48;;;;;;;12.88;3.13;;;11.00;99.90;;;;;;5042882;28;20040;-76
2022/05/29 06:21:14;;;;;;;15.25;3.30;;;11.10;99.90;;;;;;5019745;28;20794;-76
2022/05/29 06:23:40;;;;;;;15.02;3.00;;;11.20;99.90;;;;;;5035596;28;20110;-77
2022/05/29 06:26:10;;;;;;;13.52;3.28;;;11.30;99.90;;;;;;5016435;28;20144;-76
2022/05/29 06:28:36;;;;;;;13.85;3.10;;;11.30;99.90;;;;;;5040183;28;20045;-76
2022/05/29 06:31:04;;;;;;;12.07;2.97;;;11.30;99.90;;;;;;5034598;28;20036;-76
2022/05/29 06:33:30;;;;;;;11.85;3.10;;;11.20;99.90;;;;;;5016473;28;20030;-77
2022/05/29 06:36:10;;;;;;;15.10;3.50;;;11.10;99.90;;;;;;5031249;28;20098;-76
2022/05/29 06:38:36;;;;;;;12.98;2.80;;;11.10;99.90;;;;;;5033097;28;20037;-76
2022/05/29 06:41:08;;;;;;;14.68;3.05;;;11.00;99.90;;;;;;5042205;28;20633;-76
2022/05/29 06:43:34;;;;;;;;;;;10.90;99.90;;;;;;5039346;28;20049;-76
2022/05/29 06:46:01;;;;;;;12.52;2.83;;;10.80;99.90;;;;;;5028952;28;19924;-76
2022/05/29 06:48:27;;;;;;;14.00;2.97;;;10.80;99.90;;;;;;5041958;28;20041;-76
2022/05/29 06:50:53;;;;;;;14.77;3.53;;;10.70;99.90;;;;;;5021060;28;20052;-76
2022/05/29 06:53:20;;;;;;;12.75;3.13;;;10.70;99.90;;;;;;5016856;28;20120;-76
2022/05/29 06:55:56;;;;;;;15.65;3.45;;;10.70;99.90;;;;;;5013097;28;20029;-76
2022/05/29 06:58:22;;;;;;;12.32;3.00;;;10.80;99.90;;;;;;5034570;28;20048;-76
2022/05/29 07:09:01;;;;;;;14.95;3.03;;;11.20;99.90;;;;;;5032845;28;20083;-77
2022/05/29 07:11:30;;;;;;;11.88;2.95;;;11.30;99.90;;;;;;5036914;28;20500;-77
2022/05/29 07:13:57;;;;;;;13.45;2.90;;;11.50;99.90;;;;;;5052821;28;20041;-76
2022/05/29 07:16:23;;;;;;;14.73;2.90;;;11.70;99.90;;;;;;5015234;28;20045;-76
2022/05/29 07:18:50;;;;;;;14.27;2.67;;;11.80;99.90;;;;;;5016441;28;20540;-76
2022/05/29 07:21:17;;;;;;;11.98;2.92;;;11.80;99.90;;;;;;5033281;28;20125;-77
2022/05/29 07:23:43;;;;;;;15.85;3.17;;;11.90;99.90;;;;;;5045213;28;20060;-77
2022/05/29 07:26:09;;;;;;;15.55;3.05;;;12.00;99.90;;;;;;5029051;28;20531;-76
2022/05/29 07:28:35;;;;;;;13.25;2.63;;;12.00;99.90;;;;;;5045081;28;20040;-76
2022/05/29 07:31:01;;;;;;;14.60;3.08;;;12.10;99.90;;;;;;5043712;28;20040;-76
2022/05/29 07:33:27;;;;;;;14.02;2.83;;;12.20;99.90;;;;;;5028154;28;20049;-76
2022/05/29 07:35:53;;;;;;;15.73;3.35;;;12.10;99.90;;;;;;5043334;28;20040;-76
2022/05/29 07:38:19;;;;;;;13.65;2.90;;;12.10;99.90;;;;;;5035730;28;20473;-76
2022/05/29 07:40:45;;;;;;;15.02;2.97;;;12.10;99.90;;;;;;5039165;28;20032;-76
2022/05/29 07:43:19;;;;;;;14.35;3.00;;;12.20;99.90;;;;;;5040330;28;20037;-76
2022/05/29 07:45:57;;;;;;;13.88;3.00;;;12.30;99.90;;;;;;5038426;28;20515;-76
2022/05/29 07:48:25;;;;;;;13.82;2.95;;;12.30;99.90;;;;;;5044674;28;20041;-76
2022/05/29 07:50:53;;;;;;;16.33;3.10;;;12.20;99.90;;;;;;5023818;28;20096;-77
2022/05/29 07:53:20;;;;;;;19.23;3.35;;;12.20;99.90;;;;;;5026632;28;20037;-77
2022/05/29 07:55:46;;;;;;;10.60;2.45;;;12.10;99.90;;;;;;5044176;28;20124;-77
2022/05/29 07:58:13;;;;;;;11.50;2.65;;;12.00;99.90;;;;;;5021985;28;20523;-77
2022/05/29 08:00:40;;;;;;;11.15;2.50;;;12.00;99.90;;;;;;5040231;28;20103;-77
2022/05/29 08:03:07;;;;;;;12.90;2.80;;;12.00;99.90;;;;;;5043316;28;20047;-81
2022/05/29 08:05:36;;;;;;;12.63;2.88;;;11.90;99.90;;;;;;5049078;28;20043;-79
2022/05/29 08:08:04;;;;;;;12.25;3.00;;;11.90;99.90;;;;;;5037498;28;20557;-79
2022/05/29 08:10:33;;;;;;;11.48;2.60;;;11.90;99.90;;;;;;5030410;28;20076;-78
2022/05/29 08:12:59;;;;;;;15.98;2.85;;;11.90;99.90;;;;;;5031001;28;20083;-78
2022/05/29 08:15:25;;;;;;;11.65;2.40;;;12.00;99.90;;;;;;5043033;28;20405;-78
2022/05/29 08:17:51;;;;;;;13.43;2.60;;;12.00;99.90;;;;;;5034834;28;20044;-78
2022/05/29 08:20:17;;;;;;;11.98;2.90;;;11.90;99.90;;;;;;5015490;28;20179;-78
2022/05/29 08:22:43;;;;;;;13.15;2.58;;;12.00;99.90;;;;;;5039040;28;20048;-77
2022/05/29 08:30:43;;;;;;;12.38;2.42;;;12.00;99.90;;;;;;5037176;28;20080;-76
2022/05/29 08:33:12;;;;;;;9.50;2.00;;;11.90;99.90;;;;;;5012736;28;20124;-76
2022/05/29 08:35:40;;;;;;;12.65;2.70;;;11.70;99.90;;;;;;5038989;28;20035;-76
2022/05/29 08:38:08;;;;;;;14.32;2.40;;;11.60;99.90;;;;;;5036624;28;20440;-76
2022/05/29 08:40:42;;;;;;;9.73;1.98;;;11.60;99.90;;;;;;5041194;28;20036;-77
2022/05/29 08:43:12;;;;;;;11.63;2.30;;;11.60;99.90;;;;;;5043632;28;20086;-77
2022/05/29 08:45:39;;;;;;;9.40;2.05;;;11.60;99.90;;;;;;5046906;28;20128;-78
2022/05/29 08:48:05;;;;;;;9.80;2.10;;;11.70;99.90;;;;;;5031986;28;20495;-77
2022/05/29 08:50:53;;;;;;;12.82;2.28;;;11.80;99.90;;;;;;5032028;28;20462;-77
2022/05/29 08:53:36;;;;;;;8.60;1.90;;;11.90;99.90;;;;;;5032440;28;20496;-77
2022/05/29 08:56:15;;;;;;;10.05;2.03;;;12.00;99.90;;;;;;5030324;28;20037;-77
2022/05/29 08:59:08;;;;;;;9.52;1.90;;;12.00;99.90;;;;;;5045029;28;20044;-77
2022/05/29 09:01:57;;;;;;;9.75;2.17;;;12.10;99.90;;;;;;5031784;28;20519;-77
2022/05/29 09:04:33;;;;;;;11.30;1.98;;;12.20;99.90;;;;;;5032386;28;20041;-77
2022/05/29 09:07:01;;;;;;;10.00;2.00;;;12.30;99.90;;;;;;5030906;28;20132;-77
2022/05/29 09:09:33;;;;;;;9.27;2.08;;;12.50;99.90;;;;;;5038743;28;20487;-77
2022/05/29 09:12:15;;;;;;;10.70;2.53;;;12.70;99.90;;;;;;5054925;28;20057;-77
2022/05/29 09:14:57;;;;;;;8.88;1.80;;;12.90;99.90;;;;;;5048684;28;20060;-77
2022/05/29 09:17:41;;;;;;;9.68;2.08;;;12.90;99.90;;;;;;5033768;28;20124;-77
2022/05/29 09:20:30;;;;;;;9.23;2.10;;;12.90;99.90;;;;;;5055690;28;20041;-77
2022/05/29 09:22:59;;;;;;;11.02;1.58;;;12.70;99.90;;;;;;5054145;28;20114;-77
2022/05/29 09:25:32;;;;;;;8.00;1.80;;;12.60;99.90;;;;;;5034847;28;20531;-77
2022/05/29 09:28:09;;;;;;;7.22;1.60;;;12.50;99.90;;;;;;5037227;28;20496;-77
2022/05/29 09:30:38;;;;;;;9.15;1.58;;;12.50;99.90;;;;;;5036595;28;20120;-77
2022/05/29 09:33:19;;;;;;;7.13;1.40;;;12.50;99.90;;;;;;5053120;28;20179;-77
2022/05/29 09:36:07;;;;;;;7.22;1.50;;;12.50;99.90;;;;;;5046095;28;20037;-77
2022/05/29 09:38:45;;;;;;;7.93;1.40;;;12.30;99.90;;;;;;5022688;28;20056;-77
2022/05/29 09:41:19;;;;;;;8.25;1.65;;;12.30;99.90;;;;;;5054000;28;20072;-76
2022/05/29 09:44:04;;;;;;;9.38;1.50;;;12.30;99.90;;;;;;5021965;28;20037;-77
2022/05/29 09:46:36;;;;;;;6.95;1.63;;;12.10;99.90;;;;;;5053581;28;20495;-77
2022/05/29 09:51:55;;;;;;;7.30;1.60;;;12.00;99.90;;;;;;5036978;28;20056;-77
2022/05/29 09:54:30;;;;;;;8.00;1.90;;;12.10;99.90;;;;;;5041857;28;20071;-77
2022/05/29 09:57:24;;;;;;;10.80;2.00;;;12.20;99.90;;;;;;5046624;28;20048;-77
2022/05/29 09:59:55;;;;;;;11.10;1.88;;;12.30;99.90;;;;;;5038725;28;20050;-77
2022/05/29 10:02:26;;;;;;;8.63;1.60;;;12.50;99.90;;;;;;5034938;28;20086;-77
2022/05/29 10:04:55;;;;;;;8.20;1.65;;;12.50;99.90;;;;;;5046479;28;20037;-77
2022/05/29 10:07:36;;;;;;;9.35;1.70;;;12.50;99.90;;;;;;5049808;28;20037;-77
2022/05/29 10:10:07;;;;;;;7.90;1.77;;;12.40;99.90;;;;;;5033510;28;20063;-77
2022/05/29 10:12:40;;;;;;;8.90;1.60;;;12.40;99.90;;;;;;5043531;28;20036;-77
2022/05/29 10:15:33;;;;;;;9.43;1.65;;;12.30;99.90;;;;;;5042242;28;20451;-77
2022/05/29 10:18:07;;;;;;;7.35;1.70;;;12.40;99.90;;;;;;5046666;28;20037;-77
2022/05/29 10:20:37;;;;;;;9.75;1.85;;;12.40;99.90;;;;;;5039414;28;20396;-76
2022/05/29 10:23:12;;;;;;;6.72;1.60;;;12.20;99.90;;;;;;5037087;28;20033;-77
2022/05/29 10:25:53;;;;;;;8.05;1.80;;;12.20;99.90;;;;;;5039432;28;20056;-77
2022/05/29 10:28:25;;;;;;;8.32;1.88;;;12.10;99.90;;;;;;5033796;28;20417;-76
2022/05/29 10:31:05;;;;;;;9.88;1.90;;;12.20;99.90;;;;;;5039477;28;20404;-76
2022/05/29 10:33:34;;;;;;;9.88;1.80;;;12.30;99.90;;;;;;5044495;28;20476;-76
2022/05/29 10:36:13;;;;;;;7.95;1.83;;;12.60;99.90;;;;;;5039207;28;20377;-76
2022/05/29 10:38:39;;;;;;;10.20;1.80;;;12.80;99.90;;;;;;5035333;28;20045;-76
2022/05/29 10:41:07;;;;;;;6.93;1.58;;;13.00;99.90;;;;;;5035950;28;20124;-77
2022/05/29 10:43:46;;;;;;;8.55;1.52;;;13.10;99.90;;;;;;5034812;28;20045;-76
2022/05/29 10:46:15;;;;;;;6.93;1.55;;;13.00;99.90;;;;;;5034074;28;20037;-76
2022/05/29 10:49:25;;;;;;;6.35;1.70;;;12.90;99.90;;;;;;5048082;28;20072;-77
2022/05/29 10:52:13;;;;;;;7.50;1.70;;;12.70;99.90;;;;;;5053189;28;20041;-77
2022/05/29 10:55:07;;;;;;;9.07;1.85;;;12.40;99.90;;;;;;5044808;28;20121;-77
2022/05/29 10:57:32;;;;;;;8.65;1.80;;;12.30;99.90;;;;;;5038333;28;20033;-77
2022/05/29 10:59:58;;;;;;;9.20;1.80;;;12.20;99.90;;;;;;5053076;28;20040;-76
2022/05/29 11:03:21;;;;;;;8.68;1.90;;;12.20;99.90;;;;;;5044832;28;20037;-76
2022/05/29 11:06:08;;;;;;;;;;;12.30;99.90;;;;;;5054966;28;20076;-77
2022/05/29 11:08:49;;;;;;;9.23;1.63;;;12.40;99.90;;;;;;5051375;28;19966;-77
2022/05/29 11:11:50;;;;;;;11.45;1.92;;;12.70;99.90;;;;;;5042410;28;20099;-77
2022/05/29 11:14:39;;;;;;;9.43;2.00;;;12.80;99.90;;;;;;5049778;28;20121;-77
2022/05/29 11:17:17;;;;;;;8.43;1.80;;;13.10;99.90;;;;;;5035035;28;20120;-77
2022/05/29 11:19:49;;;;;;;9.43;1.80;;;13.20;99.90;;;;;;5020076;28;20041;-76
2022/05/29 11:22:21;;;;;;;8.43;1.80;;;13.30;99.90;;;;;;5039530;28;20112;-77
2022/05/29 11:25:04;;;;;;;7.45;1.80;;;13.30;99.90;;;;;;5042978;28;20053;-77
2022/05/29 11:27:54;;;;;;;8.50;1.95;;;13.20;99.90;;;;;;5041673;28;20510;-77
2022/05/29 11:30:25;;;;;;;10.10;2.00;;;13.10;99.90;;;;;;5041621;28;20033;-77
2022/05/29 11:33:13;;;;;;;8.48;1.80;;;13.00;99.90;;;;;;5044668;28;20049;-77
2022/05/29 11:36:08;;;;;;;9.65;1.77;;;12.90;99.90;;;;;;5044851;28;20098;-77
2022/05/29 11:39:01;;;;;;;7.45;1.90;;;12.70;99.90;;;;;;5026422;28;20053;-77
2022/05/29 11:41:32;;;;;;;8.45;1.80;;;12.60;99.90;;;;;;5040069;28;20033;-77
2022/05/29 11:44:07;;;;;;;8.67;1.90;;;12.60;99.90;;;;;;5039635;28;20041;-77
2022/05/29 11:52:25;;;;;;;;;;;12.60;99.90;;;;;;5037490;28;20550;-77
2022/05/29 11:55:15;;;;;;;9.43;2.13;;;12.80;99.90;;;;;;5036317;28;19991;-77
2022/05/29 11:57:53;;;;;;;9.65;1.85;;;13.00;99.90;;;;;;5047479;28;20040;-77
2022/05/29 12:00:41;;;;;;;8.95;1.98;;;13.10;99.90;;;;;;5038877;28;20140;-77
2022/05/29 12:03:32;;;;;;;8.73;1.95;;;13.20;99.90;;;;;;5056750;28;20076;-77
2022/05/29 12:06:05;;;;;;;12.68;1.90;;;13.50;99.90;;;;;;5047571;28;20048;-77
2022/05/29 12:08:30;;;;;;;10.85;1.85;;;13.50;99.90;;;;;;5043156;28;20496;-77
2022/05/29 12:11:06;;;;;;;9.13;2.00;;;13.50;99.90;;;;;;5039499;28;20044;-77
2022/05/29 12:13:38;;;;;;;6.90;1.60;;;13.40;99.90;;;;;;5030700;28;20091;-78
2022/05/29 12:16:08;;;;;;;9.88;1.80;;;13.20;99.90;;;;;;5040440;28;20111;-77
2022/05/29 12:18:50;;;;;;;7.00;1.58;;;13.00;99.90;;;;;;5042172;28;20041;-77
2022/05/29 12:21:24;;;;;;;6.57;1.52;;;12.70;99.90;;;;;;5038971;28;20040;-77
2022/05/29 12:23:52;;;;;;;6.78;1.52;;;12.50;99.90;;;;;;5023823;28;20051;-77
2022/05/29 12:26:26;;;;;;;9.68;1.58;;;12.30;99.90;;;;;;5040705;28;20053;-77
2022/05/29 12:29:06;;;;;;;7.72;1.73;;;12.30;99.90;;;;;;5031897;28;20044;-77
2022/05/29 12:31:44;;;;;;;11.90;1.58;;;12.40;99.90;;;;;;5034924;28;20068;-77
2022/05/29 12:34:23;;;;;;;8.70;1.77;;;12.50;99.90;;;;;;5033943;28;20080;-77
2022/05/29 12:37:11;;;;;;;7.47;1.70;;;12.60;99.90;;;;;;5033380;28;20045;-77
2022/05/29 12:40:09;;;;;;;7.60;1.60;;;12.60;99.90;;;;;;5034734;28;20037;-76
2022/05/29 12:43:06;;;;;;;9.32;1.60;;;12.70;99.90;;;;;;4998848;28;20079;-77
2022/05/29 12:45:38;;;;;;;7.00;1.60;;;12.80;99.90;;;;;;5045486;28;20077;-77
2022/05/29 12:48:27;;;;;;;7.90;1.60;;;13.00;99.90;;;;;;5040903;28;20071;-76
2022/05/29 12:51:34;;;;;;;8.10;1.65;;;13.00;99.90;;;;;;5045697;28;20563;-76
2022/05/29 12:54:30;;;;;;;8.30;1.60;;;13.20;99.90;;;;;;5029276;28;20041;-76
2022/05/29 12:57:25;;;;;;;9.25;1.90;;;13.30;99.90;;;;;;5044882;28;20121;-76
2022/05/29 12:59:56;;;;;;;6.43;1.55;;;13.50;99.90;;;;;;5045985;28;20045;-77
2022/05/29 13:02:56;;;;;;;8.85;1.65;;;13.70;99.90;;;;;;5037904;28;20061;-76
2022/05/29 13:06:00;;;;;;;8.80;1.60;;;13.80;99.90;;;;;;5046317;28;20568;-76
2022/05/29 13:08:48;;;;;;;7.47;1.80;;;13.90;99.90;;;;;;5059023;28;20098;-76
2022/05/29 13:11:33;;;;;;;8.75;1.90;;;14.00;99.90;;;;;;5046031;28;20072;-76
2022/05/29 13:14:04;;;;;;;8.23;1.85;;;14.10;99.90;;;;;;5048783;28;20231;-76
2022/05/29 13:16:40;;;;;;;10.18;1.90;;;14.00;99.90;;;;;;5045976;28;20101;-76
2022/05/29 13:19:24;;;;;;;9.38;1.98;;;14.00;99.90;;;;;;5046862;28;20061;-76
2022/05/29 13:55:17;;;;;;;8.48;1.80;;;12.30;99.90;;;;;;4874683;29;20188;-76
2022/05/29 14:04:03;;;;;;;9.38;1.80;;;12.50;99.90;;;;;;4860552;29;20056;-77
2022/05/29 14:06:42;;;;;;;7.78;1.60;;;12.50;99.90;;;;;;4863238;29;20510;-77
2022/05/29 14:09:13;;;;;;;10.63;1.80;;;12.40;99.90;;;;;;4861743;29;20077;-77
2022/05/29 14:11:51;;;;;;;6.57;1.52;;;12.50;99.90;;;;;;4864247;29;20041;-77
2022/05/29 14:14:34;;;;;;;6.88;1.55;;;12.70;99.90;;;;;;4864428;29;20100;-77
2022/05/29 14:17:00;;;;;;;8.65;1.90;;;12.80;99.90;;;;;;4879879;29;20044;-77
2022/05/29 14:19:38;;;;;;;7.32;1.70;;;13.00;99.90;;;;;;4862831;29;20037;-77
2022/05/29 14:22:16;;;;;;;8.35;1.85;;;13.20;99.90;;;;;;4864419;29;20052;-77
2022/05/29 14:25:03;;;;;;;7.50;1.65;;;13.20;99.90;;;;;;4862239;29;20074;-77
2022/05/29 14:28:03;;;;;;;8.13;1.70;;;13.20;99.90;;;;;;4857842;29;20041;-77